Time;durP1;ratioP1;P1;durP2;ratioP2;P2;SDS_P1;SDS_P2;PMS_P1;PMS_P2;Temp;Humidity;BMP_temperature;BMP_pressure;BME280_temperature;BME280_humidity;BME280_pressure;Samples;Min_cycle;Max_cycle;Signal;HPM_P1;HPM_P2
2022/10/28 00:01:21;;;;;;;14.68;12.00;;;14.50;99.90;;;;;;5057847;28;20269;-27
2022/10/28 00:03:49;;;;;;;18.02;11.70;;;14.50;99.90;;;;;;5060224;28;20112;-27
2022/10/28 00:06:31;;;;;;;14.32;10.43;;;14.40;99.90;;;;;;5067975;28;20035;-27
2022/10/28 00:08:57;;;;;;;16.80;10.27;;;14.40;99.90;;;;;;5063132;28;20089;-27
2022/10/28 00:11:25;;;;;;;14.82;9.90;;;14.30;99.90;;;;;;5063982;28;20040;-27
2022/10/28 00:13:56;;;;;;;13.43;10.02;;;14.30;99.90;;;;;;5073625;28;20028;-28
2022/10/28 00:16:24;;;;;;;13.50;9.45;;;14.20;99.90;;;;;;5073000;28;20040;-28
2022/10/28 00:18:52;;;;;;;13.90;9.90;;;14.20;99.90;;;;;;5067527;28;20044;-28
2022/10/28 00:21:27;;;;;;;15.90;10.43;;;14.20;99.90;;;;;;5068216;28;20044;-26
2022/10/28 00:23:54;;;;;;;22.35;11.40;;;14.20;99.90;;;;;;5067118;28;20028;-26
2022/10/28 00:26:23;;;;;;;18.20;10.15;;;14.20;99.90;;;;;;5073351;28;20033;-28
2022/10/28 00:28:54;;;;;;;11.35;9.88;;;14.10;99.90;;;;;;5068567;28;20541;-28
2022/10/28 00:31:22;;;;;;;13.43;10.23;;;14.20;99.90;;;;;;5061842;28;20485;-28
2022/10/28 00:33:48;;;;;;;16.33;10.77;;;14.10;99.90;;;;;;5065458;28;20039;-28
2022/10/28 00:36:18;;;;;;;14.20;9.43;;;14.10;99.90;;;;;;5068945;28;20048;-28
2022/10/28 00:38:46;;;;;;;12.18;9.98;;;14.10;99.90;;;;;;5068827;28;20029;-28
2022/10/28 00:41:18;;;;;;;16.50;9.48;;;14.10;99.90;;;;;;5054704;28;20372;-28
2022/10/28 00:43:52;;;;;;;18.63;10.98;;;14.10;99.90;;;;;;5069164;28;20365;-28
2022/10/28 00:46:41;;;;;;;16.70;10.75;;;14.10;99.90;;;;;;5056306;28;20485;-28
2022/10/28 00:49:21;;;;;;;15.52;10.45;;;14.10;99.90;;;;;;5065471;28;20088;-28
2022/10/28 00:51:51;;;;;;;14.65;9.85;;;14.00;99.90;;;;;;5074786;28;20040;-36
2022/10/28 00:54:18;;;;;;;19.42;11.88;;;14.00;99.90;;;;;;5073421;28;20059;-28
2022/10/28 00:56:47;;;;;;;19.88;11.90;;;14.00;99.90;;;;;;5072771;28;20033;-28
2022/10/28 00:59:25;;;;;;;20.52;12.25;;;14.10;99.90;;;;;;5060751;28;20515;-28
2022/10/28 01:01:51;;;;;;;14.23;11.55;;;14.00;99.90;;;;;;5061430;28;20032;-28
2022/10/28 01:04:17;;;;;;;15.27;11.52;;;14.00;99.90;;;;;;5072012;28;20093;-28
2022/10/28 01:06:44;;;;;;;18.95;11.80;;;14.00;99.90;;;;;;5071965;28;20033;-28
2022/10/28 01:09:10;;;;;;;16.50;12.05;;;14.00;99.90;;;;;;5058260;28;20040;-28
2022/10/28 01:12:09;;;;;;;18.05;11.15;;;14.00;99.90;;;;;;5069413;28;20041;-28
2022/10/28 01:14:54;;;;;;;17.75;12.15;;;13.90;99.90;;;;;;5069713;28;20037;-28
2022/10/28 01:17:37;;;;;;;18.10;12.50;;;13.90;99.90;;;;;;5064143;28;20044;-28
2022/10/28 01:20:24;;;;;;;18.83;11.50;;;13.90;99.90;;;;;;5063751;28;20045;-28
2022/10/28 01:23:20;;;;;;;18.20;11.52;;;13.90;99.90;;;;;;5058272;28;20033;-28
2022/10/28 01:26:04;;;;;;;19.45;12.80;;;13.90;99.90;;;;;;5067200;28;21671;-28
2022/10/28 01:28:54;;;;;;;14.77;11.80;;;13.90;99.90;;;;;;5071053;28;20071;-28
2022/10/28 01:31:45;;;;;;;19.38;13.40;;;13.90;99.90;;;;;;5066364;28;20476;-28
2022/10/28 01:34:18;;;;;;;18.00;12.63;;;13.90;99.90;;;;;;5067390;28;20047;-28
2022/10/28 01:36:53;;;;;;;14.70;11.60;;;13.80;99.90;;;;;;5064547;28;20082;-28
2022/10/28 01:39:43;;;;;;;14.77;10.70;;;13.80;99.90;;;;;;5064408;28;20416;-28
2022/10/28 01:42:17;;;;;;;17.33;10.52;;;13.70;99.90;;;;;;5042378;28;20492;-28
2022/10/28 01:44:52;;;;;;;16.23;12.23;;;13.60;99.90;;;;;;5064702;28;20049;-28
2022/10/28 01:47:41;;;;;;;15.88;11.73;;;13.60;99.90;;;;;;5065082;28;20527;-28
2022/10/28 01:50:27;;;;;;;16.73;10.52;;;13.60;99.90;;;;;;5066738;28;20083;-28
2022/10/28 01:52:59;;;;;;;12.43;10.50;;;13.50;99.90;;;;;;5055658;28;20033;-28
2022/10/28 01:55:35;;;;;;;22.15;13.02;;;13.50;99.90;;;;;;5069960;28;20040;-28
2022/10/28 01:58:03;;;;;;;22.92;14.38;;;13.50;99.90;;;;;;5067703;28;20035;-28
2022/10/28 02:00:30;;;;;;;18.15;13.68;;;13.50;99.90;;;;;;5065542;28;20044;-28
2022/10/28 02:02:56;;;;;;;16.52;11.07;;;13.50;99.90;;;;;;5057477;28;20147;-28
2022/10/28 02:05:51;;;;;;;14.95;9.93;;;13.50;99.90;;;;;;5055081;28;20131;-28
2022/10/28 02:09:04;;;;;;;14.98;10.95;;;13.50;99.90;;;;;;5085310;28;20032;-28
2022/10/28 02:11:42;;;;;;;21.65;12.27;;;13.40;99.90;;;;;;5057525;28;20102;-28
2022/10/28 02:14:17;;;;;;;15.85;11.35;;;13.40;99.90;;;;;;5066729;28;20044;-28
2022/10/28 02:17:00;;;;;;;18.40;11.50;;;13.40;99.90;;;;;;5067168;28;20535;-27
2022/10/28 02:19:35;;;;;;;17.27;11.00;;;13.40;99.90;;;;;;5061389;28;20041;-27
2022/10/28 02:22:06;;;;;;;14.73;10.93;;;13.40;99.90;;;;;;5062929;28;20123;-27
2022/10/28 02:24:53;;;;;;;19.00;12.38;;;13.40;99.90;;;;;;5061133;28;20433;-27
2022/10/28 02:27:40;;;;;;;19.63;11.18;;;13.30;99.90;;;;;;5068043;28;20086;-27
2022/10/28 02:30:22;;;;;;;20.45;11.00;;;13.30;99.90;;;;;;5068253;28;20032;-27
2022/10/28 02:32:52;;;;;;;17.30;11.57;;;13.30;99.90;;;;;;5064890;28;20072;-27
2022/10/28 02:35:33;;;;;;;17.60;11.85;;;13.20;99.90;;;;;;5067191;28;20178;-27
2022/10/28 02:38:03;;;;;;;16.20;11.40;;;13.20;99.90;;;;;;5057979;28;20094;-28
2022/10/28 02:40:31;;;;;;;16.45;11.85;;;13.10;99.90;;;;;;5066919;28;20032;-27
2022/10/28 02:43:01;;;;;;;18.02;11.80;;;13.10;99.90;;;;;;5062836;28;20523;-29
2022/10/28 02:45:33;;;;;;;19.13;12.35;;;13.10;99.90;;;;;;5060347;28;20393;-28
2022/10/28 02:48:05;;;;;;;18.35;11.32;;;13.10;99.90;;;;;;5065043;28;20129;-28
2022/10/28 02:50:36;;;;;;;17.53;10.73;;;13.10;99.90;;;;;;5066264;28;20378;-28
2022/10/28 02:53:07;;;;;;;16.05;11.52;;;13.00;99.90;;;;;;5060309;28;20028;-27
2022/10/28 02:55:38;;;;;;;17.45;11.82;;;13.00;99.90;;;;;;5069393;28;20450;-30
2022/10/28 02:58:05;;;;;;;17.55;10.95;;;12.90;99.90;;;;;;5063335;28;20043;-38
2022/10/28 03:00:30;;;;;;;17.27;11.10;;;12.90;99.90;;;;;;5083531;28;20451;-28
2022/10/28 03:02:56;;;;;;;18.50;10.88;;;12.90;99.90;;;;;;5069274;28;20025;-28
2022/10/28 03:05:22;;;;;;;17.63;10.57;;;12.90;99.90;;;;;;5062254;28;20044;-28
2022/10/28 03:07:47;;;;;;;16.92;12.05;;;12.80;99.90;;;;;;5063388;28;20361;-28
2022/10/28 03:10:13;;;;;;;15.27;10.63;;;12.80;99.90;;;;;;5059805;28;20040;-28
2022/10/28 03:12:38;;;;;;;18.45;11.38;;;12.80;99.90;;;;;;5074729;28;20048;-27
2022/10/28 03:15:04;;;;;;;15.07;10.98;;;12.70;99.90;;;;;;5063358;28;20068;-27
2022/10/28 03:17:30;;;;;;;16.15;12.95;;;12.70;99.90;;;;;;5057667;28;20574;-27
2022/10/28 03:19:56;;;;;;;14.48;11.05;;;12.70;99.90;;;;;;5058108;28;20097;-26
2022/10/28 03:22:21;;;;;;;18.52;12.02;;;12.70;99.90;;;;;;5051773;28;20512;-25
2022/10/28 03:24:47;;;;;;;20.30;12.38;;;12.60;99.90;;;;;;5071310;28;20537;-25
2022/10/28 03:27:12;;;;;;;15.43;11.32;;;12.60;99.90;;;;;;5071308;28;20043;-25
2022/10/28 03:29:38;;;;;;;15.60;11.27;;;12.60;99.90;;;;;;5071210;28;20388;-25
2022/10/28 03:32:04;;;;;;;13.32;10.45;;;12.60;99.90;;;;;;5070864;28;20090;-25
2022/10/28 03:34:29;;;;;;;17.42;12.85;;;12.50;99.90;;;;;;5071065;28;20094;-25
2022/10/28 03:36:55;;;;;;;14.88;10.40;;;12.50;99.90;;;;;;5070833;28;20440;-26
2022/10/28 03:39:21;;;;;;;18.25;10.77;;;12.50;99.90;;;;;;5071077;28;20123;-25
2022/10/28 03:41:46;;;;;;;16.10;11.05;;;12.50;99.90;;;;;;5070994;28;20123;-25
2022/10/28 03:44:12;;;;;;;17.77;12.35;;;12.50;99.90;;;;;;5070963;28;20064;-25
2022/10/28 03:46:38;;;;;;;18.08;12.25;;;12.50;99.90;;;;;;5070787;28;20500;-25
2022/10/28 03:49:03;;;;;;;14.65;11.40;;;12.50;99.90;;;;;;5070902;28;20443;-25
2022/10/28 03:51:29;;;;;;;18.27;13.25;;;12.50;99.90;;;;;;5070742;28;20554;-25
2022/10/28 03:53:55;;;;;;;18.30;12.80;;;12.50;99.90;;;;;;5086157;28;20051;-25
2022/10/28 03:56:20;;;;;;;18.08;11.82;;;12.50;99.90;;;;;;5071143;28;20029;-25
2022/10/28 03:58:47;;;;;;;16.02;12.07;;;12.50;99.90;;;;;;5069530;28;20036;-25
2022/10/28 04:01:13;;;;;;;16.15;12.52;;;12.50;99.90;;;;;;5070915;28;20396;-25
2022/10/28 04:03:38;;;;;;;17.40;12.25;;;12.50;99.90;;;;;;5070483;28;20041;-25
2022/10/28 04:06:04;;;;;;;17.55;12.05;;;12.50;99.90;;;;;;5069378;28;20116;-25
2022/10/28 04:08:30;;;;;;;15.40;11.43;;;12.50;99.90;;;;;;5070736;28;20037;-25
2022/10/28 04:10:56;;;;;;;15.38;12.27;;;12.50;99.90;;;;;;5071027;28;20047;-25
2022/10/28 04:13:21;;;;;;;17.02;11.75;;;12.40;99.90;;;;;;5070849;28;20044;-25
2022/10/28 04:15:47;;;;;;;18.77;13.02;;;12.40;99.90;;;;;;5070800;28;20382;-25
2022/10/28 04:18:13;;;;;;;15.88;11.55;;;12.40;99.90;;;;;;5070632;28;20473;-25
2022/10/28 04:20:38;;;;;;;17.30;12.23;;;12.40;99.90;;;;;;5069893;28;20446;-24
2022/10/28 04:23:04;;;;;;;18.50;12.13;;;12.40;99.90;;;;;;5067089;28;20503;-25
2022/10/28 04:25:29;;;;;;;15.30;13.10;;;12.40;99.90;;;;;;5070107;28;20098;-25
2022/10/28 04:27:55;;;;;;;20.00;13.98;;;12.40;99.90;;;;;;5069323;28;20041;-25
2022/10/28 04:30:21;;;;;;;21.48;15.23;;;12.40;99.90;;;;;;5070638;28;20037;-25
2022/10/28 04:32:47;;;;;;;15.13;12.25;;;12.30;99.90;;;;;;5070181;28;20463;-25
2022/10/28 04:35:13;;;;;;;20.88;13.85;;;12.30;99.90;;;;;;5072457;28;20037;-24
2022/10/28 04:37:39;;;;;;;16.58;13.23;;;12.40;99.90;;;;;;5074247;28;20232;-25
2022/10/28 04:40:06;;;;;;;16.65;12.73;;;12.30;99.90;;;;;;5074230;28;20093;-25
2022/10/28 04:42:32;;;;;;;21.35;14.18;;;12.30;99.90;;;;;;5073850;28;20048;-25
2022/10/28 04:44:57;;;;;;;17.42;12.98;;;12.30;99.90;;;;;;5073929;28;20063;-25
2022/10/28 04:47:23;;;;;;;16.40;13.10;;;12.30;99.90;;;;;;5062826;22;20503;-89
2022/10/28 04:49:49;;;;;;;19.38;14.48;;;12.30;99.90;;;;;;5056444;28;20036;-89
2022/10/28 04:52:14;;;;;;;19.05;14.50;;;12.30;99.90;;;;;;5021044;28;20041;-89
2022/10/28 04:54:40;;;;;;;18.67;14.30;;;12.30;99.90;;;;;;5020538;28;20091;-89
2022/10/28 04:57:05;;;;;;;17.85;12.85;;;12.30;99.90;;;;;;5054351;28;20033;-90
2022/10/28 04:59:31;;;;;;;19.77;14.65;;;12.40;99.90;;;;;;5045779;28;20068;-90
2022/10/28 05:01:58;;;;;;;22.02;14.38;;;12.40;99.90;;;;;;5039778;28;20040;-90
2022/10/28 05:04:23;;;;;;;21.85;14.30;;;12.50;99.90;;;;;;5062772;28;20072;-91
2022/10/28 05:06:52;;;;;;;20.67;13.98;;;12.50;99.90;;;;;;5043992;28;20525;-91
2022/10/28 05:09:18;;;;;;;19.15;14.40;;;12.70;99.90;;;;;;5022403;28;20482;-90
2022/10/28 05:11:44;;;;;;;18.23;14.48;;;12.80;99.90;;;;;;5035309;28;20043;-90
2022/10/28 05:14:09;;;;;;;24.75;14.98;;;12.90;99.90;;;;;;5033700;28;20043;-90
2022/10/28 05:16:35;;;;;;;19.70;14.55;;;13.00;99.90;;;;;;5018966;28;20072;-90
2022/10/28 05:19:00;;;;;;;21.42;14.75;;;13.20;99.90;;;;;;5018301;28;20450;-91
2022/10/28 05:21:26;;;;;;;20.73;15.15;;;13.30;99.90;;;;;;5041546;28;20052;-91
2022/10/28 05:23:52;;;;;;;21.25;14.43;;;13.30;99.90;;;;;;5050967;28;20083;-90
2022/10/28 05:26:17;;;;;;;21.10;14.68;;;13.40;99.90;;;;;;5047369;28;20408;-90
2022/10/28 05:28:47;;;;;;;19.55;13.13;;;13.50;99.90;;;;;;5017435;28;20036;-90
2022/10/28 05:31:12;;;;;;;19.27;13.38;;;13.60;99.90;;;;;;5018533;28;20124;-91
2022/10/28 05:33:38;;;;;;;18.90;13.13;;;13.70;99.90;;;;;;5052794;28;20076;-90
2022/10/28 05:36:04;;;;;;;25.02;12.90;;;13.70;99.90;;;;;;5019882;28;20040;-90
2022/10/28 05:38:29;;;;;;;18.17;13.52;;;13.80;99.90;;;;;;5019175;28;20041;-90
2022/10/28 05:40:55;;;;;;;22.67;12.73;;;13.70;99.90;;;;;;5036434;28;20060;-90
2022/10/28 05:43:23;;;;;;;18.35;12.95;;;13.80;99.90;;;;;;5019146;28;20078;-91
2022/10/28 05:45:53;;;;;;;15.55;11.60;;;13.80;99.90;;;;;;5030676;28;20372;-90
2022/10/28 05:48:18;;;;;;;17.65;12.25;;;13.80;99.90;;;;;;5036216;28;20032;-91
2022/10/28 05:50:44;;;;;;;22.73;12.95;;;13.70;99.90;;;;;;5031840;28;20525;-90
2022/10/28 05:53:09;;;;;;;23.33;15.10;;;13.60;99.90;;;;;;5035044;28;20033;-90
2022/10/28 05:55:35;;;;;;;17.40;12.00;;;13.60;99.90;;;;;;5019211;28;20407;-90
2022/10/28 05:58:01;;;;;;;22.48;14.88;;;13.60;99.90;;;;;;5032062;28;20064;-90
2022/10/28 06:00:28;;;;;;;16.38;11.77;;;13.50;99.90;;;;;;5017383;28;20032;-90
2022/10/28 06:03:09;;;;;;;16.05;12.23;;;13.50;99.90;;;;;;5019055;28;20491;-91
2022/10/28 06:05:36;;;;;;;22.00;12.55;;;13.30;99.90;;;;;;5035127;28;20083;-90
2022/10/28 06:08:04;;;;;;;19.55;12.90;;;13.30;99.90;;;;;;5022880;28;20391;-90
2022/10/28 06:10:29;;;;;;;19.77;12.30;;;13.30;99.90;;;;;;5021313;28;20073;-90
2022/10/28 06:12:56;;;;;;;18.08;12.13;;;13.30;99.90;;;;;;5051877;28;20571;-90
2022/10/28 06:15:21;;;;;;;19.75;12.77;;;13.20;99.90;;;;;;5052415;28;20091;-90
2022/10/28 06:17:48;;;;;;;19.23;13.98;;;13.20;99.90;;;;;;5019223;28;20619;-90
2022/10/28 06:20:15;;;;;;;18.15;12.25;;;13.30;99.90;;;;;;5019284;28;20044;-90
2022/10/28 06:22:51;;;;;;;22.75;13.65;;;13.30;99.90;;;;;;5015326;28;20500;-89
2022/10/28 06:25:19;;;;;;;18.80;12.35;;;13.20;99.90;;;;;;5018685;28;20586;-90
2022/10/28 06:27:57;;;;;;;25.13;13.13;;;13.20;99.90;;;;;;5034311;28;20033;-90
2022/10/28 06:30:24;;;;;;;17.77;10.93;;;13.30;99.90;;;;;;5037031;28;20487;-90
2022/10/28 06:32:50;;;;;;;17.17;12.68;;;13.30;99.90;;;;;;5024404;28;20061;-91
2022/10/28 06:35:17;;;;;;;22.73;13.27;;;13.30;99.90;;;;;;5010890;28;20047;-90
2022/10/28 06:37:43;;;;;;;21.88;12.90;;;13.30;99.90;;;;;;5034846;28;20083;-90
2022/10/28 06:40:09;;;;;;;22.17;12.40;;;13.40;99.90;;;;;;5044327;28;20447;-90
2022/10/28 06:42:34;;;;;;;22.08;11.98;;;13.50;99.90;;;;;;5018628;28;20033;-90
2022/10/28 06:45:00;;;;;;;18.58;11.57;;;13.70;99.90;;;;;;5034516;28;20033;-89
2022/10/28 06:47:26;;;;;;;19.27;12.30;;;13.70;99.90;;;;;;5034824;28;20107;-89
2022/10/28 06:49:52;;;;;;;24.17;13.13;;;13.80;99.90;;;;;;5018485;28;20048;-89
2022/10/28 06:52:18;;;;;;;20.98;12.43;;;13.80;99.90;;;;;;5048374;28;20044;-90
2022/10/28 06:54:43;;;;;;;23.02;12.90;;;13.90;99.90;;;;;;5018594;28;20069;-90
2022/10/28 06:57:10;;;;;;;18.27;11.38;;;13.90;99.90;;;;;;5033887;28;20040;-89
2022/10/28 06:59:35;;;;;;;17.52;12.07;;;13.90;99.90;;;;;;5018631;28;20491;-89
2022/10/28 07:02:02;;;;;;;19.67;11.48;;;14.10;99.90;;;;;;5051024;28;20076;-90
2022/10/28 07:04:28;;;;;;;19.35;11.60;;;14.10;99.90;;;;;;5017972;28;20077;-90
2022/10/28 07:06:55;;;;;;;19.05;11.60;;;14.20;99.90;;;;;;5017675;28;20040;-90
2022/10/28 07:09:20;;;;;;;16.45;11.13;;;14.30;99.90;;;;;;5031293;28;20029;-89
2022/10/28 07:11:49;;;;;;;18.02;10.82;;;14.30;99.90;;;;;;5015569;28;20403;-89
2022/10/28 07:14:15;;;;;;;17.52;11.27;;;14.40;99.90;;;;;;5034183;28;20040;-90
2022/10/28 07:16:41;;;;;;;17.13;11.27;;;14.40;99.90;;;;;;5034230;28;20041;-91
2022/10/28 07:19:07;;;;;;;15.25;10.70;;;14.50;99.90;;;;;;5025823;28;20043;-89
2022/10/28 07:21:33;;;;;;;15.70;10.93;;;14.50;99.90;;;;;;5017103;28;20036;-90
2022/10/28 07:23:59;;;;;;;18.25;10.93;;;14.60;99.90;;;;;;5017632;28;20558;-90
2022/10/28 07:26:28;;;;;;;22.83;11.20;;;14.70;99.90;;;;;;5035212;28;20047;-90
2022/10/28 07:28:53;;;;;;;17.65;10.50;;;14.70;99.90;;;;;;5029370;28;20037;-90
2022/10/28 07:31:19;;;;;;;17.92;10.43;;;14.80;99.90;;;;;;5037455;28;20044;-90
2022/10/28 07:33:53;;;;;;;18.73;11.35;;;15.00;99.90;;;;;;5024491;28;20048;-90
2022/10/28 07:36:19;;;;;;;17.88;10.07;;;15.00;99.90;;;;;;5028585;28;20037;-90
2022/10/28 07:38:48;;;;;;;16.95;10.85;;;15.10;99.90;;;;;;5024918;28;20557;-92
2022/10/28 07:41:13;;;;;;;18.40;10.80;;;15.10;99.90;;;;;;5017323;28;20044;-89
2022/10/28 07:43:39;;;;;;;14.57;9.88;;;15.20;99.90;;;;;;5024626;28;20120;-91
2022/10/28 07:46:06;;;;;;;16.50;9.90;;;15.30;99.90;;;;;;5034455;28;20068;-89
2022/10/28 07:48:33;;;;;;;13.48;10.13;;;15.50;99.90;;;;;;5034570;28;20095;-89
2022/10/28 07:51:00;;;;;;;14.88;9.70;;;15.60;99.90;;;;;;5023204;28;20488;-90
2022/10/28 07:53:26;;;;;;;17.02;10.50;;;15.70;99.90;;;;;;5017494;28;20073;-91
2022/10/28 07:56:00;;;;;;;18.48;10.05;;;15.80;99.90;;;;;;5017335;28;20080;-89
2022/10/28 07:58:26;;;;;;;14.35;9.15;;;15.90;99.90;;;;;;5020095;28;20036;-89
2022/10/28 08:00:52;;;;;;;15.38;10.05;;;16.10;99.90;;;;;;5026022;28;20048;-89
2022/10/28 08:03:17;;;;;;;13.85;8.93;;;16.10;99.90;;;;;;5050454;28;20040;-89
2022/10/28 08:05:44;;;;;;;14.48;9.25;;;16.20;99.90;;;;;;5033686;28;20166;-89
2022/10/28 08:08:09;;;;;;;18.52;9.48;;;16.40;99.90;;;;;;5028866;28;20040;-90
2022/10/28 08:10:36;;;;;;;14.82;9.07;;;16.70;99.90;;;;;;5053056;28;20028;-90
2022/10/28 08:13:02;;;;;;;17.60;9.27;;;16.80;99.90;;;;;;5021208;28;20045;-90
2022/10/28 08:15:28;;;;;;;13.82;8.75;;;17.00;99.90;;;;;;5021170;28;20391;-91
2022/10/28 08:17:55;;;;;;;16.52;9.00;;;17.20;99.90;;;;;;5054636;28;20044;-90
2022/10/28 08:20:21;;;;;;;14.48;8.80;;;17.40;99.90;;;;;;5021175;28;20124;-91
2022/10/28 08:22:47;;;;;;;13.65;8.38;;;17.70;99.90;;;;;;5020839;28;20045;-90
2022/10/28 08:25:50;;;;;;;13.85;8.13;;;18.00;99.90;;;;;;5035547;28;20040;-90
2022/10/28 08:28:17;;;;;;;15.50;8.52;;;18.30;99.90;;;;;;5018265;28;20045;-91
2022/10/28 08:30:43;;;;;;;14.65;7.88;;;18.50;99.90;;;;;;5020470;28;20069;-91
2022/10/28 08:33:09;;;;;;;14.25;8.15;;;18.60;99.90;;;;;;5023294;28;20403;-92
2022/10/28 08:35:34;;;;;;;11.75;7.95;;;18.50;99.90;;;;;;5038986;28;20055;-90
2022/10/28 08:38:01;;;;;;;15.52;7.03;;;18.60;99.90;;;;;;5054254;28;20045;-91
2022/10/28 08:40:38;;;;;;;11.45;7.03;;;18.70;99.90;;;;;;5026408;28;20132;-90
2022/10/28 08:43:20;;;;;;;10.93;7.47;;;18.80;99.90;;;;;;5020541;28;20044;-90
2022/10/28 08:45:59;;;;;;;12.77;6.90;;;18.80;99.90;;;;;;5032776;28;20090;-90
2022/10/28 08:48:30;;;;;;;14.80;7.80;;;19.00;99.90;;;;;;5037301;28;20124;-91
2022/10/28 08:51:05;;;;;;;14.20;7.50;;;19.20;99.90;;;;;;5037238;28;20036;-91
2022/10/28 08:54:03;;;;;;;12.65;7.70;;;19.40;99.90;;;;;;5037371;28;20095;-90
2022/10/28 08:56:38;;;;;;;13.93;7.45;;;19.60;99.90;;;;;;5021799;28;20045;-91
2022/10/28 08:59:05;;;;;;;12.32;6.40;;;20.00;99.90;;;;;;5053820;28;20511;-91
2022/10/28 09:01:47;;;;;;;13.07;6.65;;;20.40;99.90;;;;;;5053704;28;20072;-91
2022/10/28 09:04:48;;;;;;;14.23;7.10;;;20.80;99.90;;;;;;5020365;28;20041;-91
2022/10/28 09:07:20;;;;;;;11.15;6.15;;;21.10;99.90;;;;;;5011859;28;20507;-91
2022/10/28 09:09:47;;;;;;;9.88;6.50;;;21.50;99.90;;;;;;5020400;28;20036;-91
2022/10/28 09:12:15;;;;;;;11.05;6.63;;;21.50;99.90;;;;;;5053431;28;20037;-91
2022/10/28 09:14:52;;;;;;;10.18;6.28;;;21.70;99.90;;;;;;5017918;28;20523;-90
2022/10/28 09:17:25;;;;;;;13.90;6.85;;;21.70;99.90;;;;;;5035761;28;20076;-90
2022/10/28 09:20:03;;;;;;;12.27;6.43;;;21.60;99.90;;;;;;5021969;28;20041;-90
2022/10/28 09:22:57;;;;;;;12.02;6.18;;;21.30;99.90;;;;;;5064978;28;20450;-90
2022/10/28 09:25:53;;;;;;;15.43;6.32;;;21.00;99.90;;;;;;5069263;28;20040;-90
2022/10/28 09:28:36;;;;;;;15.60;6.30;;;20.80;99.90;;;;;;5055778;28;20045;-89
2022/10/28 09:31:02;;;;;;;;;;;20.60;99.90;;;;;;5055388;28;20041;-90
2022/10/28 09:33:33;;;;;;;15.60;6.38;;;20.40;99.90;;;;;;5054602;28;19969;-90
2022/10/28 09:36:01;;;;;;;11.98;6.38;;;20.20;99.90;;;;;;5037073;28;20037;-89
2022/10/28 09:38:39;;;;;;;12.10;6.03;;;20.10;99.90;;;;;;5027643;28;20048;-91
2022/10/28 09:41:21;;;;;;;12.10;6.88;;;19.90;99.90;;;;;;5068145;28;20519;-91
2022/10/28 09:43:53;;;;;;;9.90;6.90;;;19.90;99.90;;;;;;5053764;28;20029;-91
2022/10/28 09:46:22;;;;;;;15.27;7.32;;;19.80;99.90;;;;;;5020146;28;20084;-91
2022/10/28 09:48:55;;;;;;;15.95;7.20;;;19.80;99.90;;;;;;5020420;28;20051;-91
2022/10/28 09:51:43;;;;;;;10.40;6.85;;;19.80;99.90;;;;;;5020639;28;20045;-91
2022/10/28 09:54:11;;;;;;;10.70;6.47;;;19.70;99.90;;;;;;5019839;28;20484;-91
2022/10/28 09:56:37;;;;;;;13.80;7.22;;;19.70;99.90;;;;;;5019653;28;20048;-90
2022/10/28 09:59:03;;;;;;;9.73;6.97;;;19.60;99.90;;;;;;5019821;28;20041;-91
2022/10/28 10:01:35;;;;;;;11.80;6.88;;;19.60;99.90;;;;;;5019854;28;20059;-91
2022/10/28 10:04:02;;;;;;;12.27;7.35;;;19.70;99.90;;;;;;5069840;28;20041;-90
2022/10/28 10:06:41;;;;;;;11.82;6.60;;;19.70;99.90;;;;;;5018735;28;20040;-90
2022/10/28 10:09:20;;;;;;;13.55;6.78;;;19.60;99.90;;;;;;5017868;28;20041;-92
2022/10/28 10:11:48;;;;;;;16.00;7.68;;;19.60;99.90;;;;;;5018256;28;20556;-91
2022/10/28 10:14:22;;;;;;;12.85;6.70;;;19.70;99.90;;;;;;5018024;28;20052;-92
2022/10/28 10:16:55;;;;;;;17.40;7.43;;;19.60;99.90;;;;;;5018072;28;20040;-91
2022/10/28 10:19:21;;;;;;;15.02;7.60;;;19.60;99.90;;;;;;5018951;28;20032;-91
2022/10/28 10:21:53;;;;;;;12.52;5.95;;;19.70;99.90;;;;;;5019509;28;20041;-92
2022/10/28 10:24:32;;;;;;;12.15;6.72;;;19.70;99.90;;;;;;5019805;28;20043;-90
2022/10/28 10:27:09;;;;;;;9.60;6.53;;;19.80;99.90;;;;;;5035813;28;20792;-91
2022/10/28 10:29:36;;;;;;;12.25;6.25;;;20.00;99.90;;;;;;5035836;28;20151;-90
2022/10/28 10:32:13;;;;;;;12.77;7.03;;;20.30;99.90;;;;;;5018606;28;20033;-90
2022/10/28 10:34:48;;;;;;;13.60;7.00;;;20.50;99.90;;;;;;5019714;28;20044;-91
2022/10/28 10:37:20;;;;;;;12.60;6.70;;;20.80;99.90;;;;;;5030858;28;20055;-91
2022/10/28 10:40:20;;;;;;;12.98;7.20;;;20.90;99.90;;;;;;5035983;28;20124;-90
2022/10/28 10:43:12;;;;;;;13.88;7.00;;;21.00;99.90;;;;;;5074177;28;20069;-91
2022/10/28 10:48:13;;;;;;;11.05;6.25;;;21.00;99.90;;;;;;5071068;28;20637;-29
2022/10/28 10:50:42;;;;;;;12.63;6.53;;;21.10;99.90;;;;;;5054891;28;20037;-30
2022/10/28 10:53:19;;;;;;;13.50;6.22;;;21.10;99.90;;;;;;5054464;28;20071;-30
2022/10/28 10:55:53;;;;;;;13.02;5.97;;;21.10;99.90;;;;;;5054362;28;20036;-31
2022/10/28 10:58:22;;;;;;;13.13;6.65;;;20.90;99.90;;;;;;5054730;28;20141;-29
2022/10/28 11:00:51;;;;;;;12.18;6.40;;;20.90;99.90;;;;;;5054740;28;20041;-30
2022/10/28 11:03:48;;;;;;;11.13;6.15;;;20.90;99.90;;;;;;5054208;28;20058;-30
2022/10/28 11:06:39;;;;;;;14.60;5.55;;;20.90;99.90;;;;;;5049539;28;20055;-30
2022/10/28 11:09:18;;;;;;;14.07;6.35;;;20.90;99.90;;;;;;5054626;28;20573;-30
2022/10/28 11:11:44;;;;;;;15.73;5.97;;;20.90;99.90;;;;;;5054576;28;20119;-31
2022/10/28 11:14:12;;;;;;;12.77;6.05;;;21.00;99.90;;;;;;5054223;28;20040;-30
2022/10/28 11:16:57;;;;;;;13.20;5.90;;;21.10;99.90;;;;;;5071168;28;20051;-30
2022/10/28 11:19:29;;;;;;;14.88;6.25;;;21.30;99.90;;;;;;5070881;28;20153;-30
2022/10/28 11:22:29;;;;;;;11.77;6.15;;;21.70;99.90;;;;;;5054368;28;20094;-30
2022/10/28 11:25:22;;;;;;;16.23;6.05;;;22.10;99.90;;;;;;5070722;28;20494;-30
2022/10/28 11:28:09;;;;;;;12.35;6.35;;;22.40;99.90;;;;;;5053961;28;20040;-33
2022/10/28 11:30:53;;;;;;;13.32;5.30;;;22.70;99.90;;;;;;5069145;28;20501;-34
2022/10/28 11:33:27;;;;;;;13.18;6.00;;;23.00;99.90;;;;;;5053562;28;20131;-33
2022/10/28 11:36:07;;;;;;;19.65;6.38;;;23.20;99.90;;;;;;5053585;28;20043;-34
2022/10/28 11:38:40;;;;;;;10.20;5.22;;;23.00;99.90;;;;;;5071910;28;20044;-36
2022/10/28 11:41:24;;;;;;;14.15;5.82;;;22.90;99.90;;;;;;5053080;28;20036;-34
2022/10/28 11:43:51;;;;;;;10.20;5.55;;;22.70;99.90;;;;;;5070654;28;20032;-37
2022/10/28 11:46:34;;;;;;;14.38;5.60;;;22.70;99.90;;;;;;5060170;28;20043;-37
2022/10/28 11:49:00;;;;;;;13.32;6.07;;;22.70;99.90;;;;;;5101936;28;20082;-32
2022/10/28 11:51:56;;;;;;;11.90;6.07;;;22.90;99.90;;;;;;5076811;28;20456;-33
2022/10/28 11:54:30;;;;;;;14.25;5.90;;;23.10;99.90;;;;;;5047260;28;20437;-33
2022/10/28 11:57:03;;;;;;;11.40;6.47;;;23.20;99.90;;;;;;5057052;28;20501;-33
2022/10/28 11:59:56;;;;;;;13.73;5.70;;;23.30;99.90;;;;;;5076480;28;20085;-34
2022/10/28 12:03:01;;;;;;;13.33;5.90;;;23.40;99.90;;;;;;5059744;28;20059;-34
2022/10/28 12:05:59;;;;;;;13.68;6.25;;;23.60;99.90;;;;;;5046478;28;20325;-34
2022/10/28 12:09:03;;;;;;;14.10;6.15;;;23.60;99.90;;;;;;5059560;28;20044;-34
2022/10/28 12:11:52;;;;;;;12.93;5.72;;;23.60;99.90;;;;;;5059798;28;20036;-34
2022/10/28 12:14:18;;;;;;;14.52;6.13;;;23.30;99.90;;;;;;5060129;28;20212;-30
2022/10/28 12:16:52;;;;;;;12.90;5.57;;;23.20;99.90;;;;;;5061066;28;20095;-30
2022/10/28 12:19:39;;;;;;;11.43;5.63;;;23.00;99.90;;;;;;5060627;28;20052;-30
2022/10/28 12:22:25;;;;;;;14.73;6.20;;;23.00;99.90;;;;;;5060101;28;20040;-30
2022/10/28 12:24:53;;;;;;;12.43;5.95;;;22.90;99.90;;;;;;5060154;28;20037;-30
2022/10/28 12:27:27;;;;;;;16.17;5.75;;;23.00;99.90;;;;;;5060100;28;20120;-30
2022/10/28 12:30:20;;;;;;;12.57;5.93;;;23.00;99.90;;;;;;5060411;28;20040;-30
2022/10/28 12:32:51;;;;;;;11.40;6.25;;;23.00;99.90;;;;;;5060144;28;20040;-30
2022/10/28 12:35:31;;;;;;;13.23;6.30;;;22.90;99.90;;;;;;5060098;28;20036;-30
2022/10/28 12:38:11;;;;;;;13.75;6.47;;;22.80;99.90;;;;;;5056360;28;20456;-30
2022/10/28 12:40:44;;;;;;;13.20;6.65;;;22.90;99.90;;;;;;5077027;28;20072;-30
2022/10/28 12:43:16;;;;;;;;;;;22.80;99.90;;;;;;5060514;28;20044;-31
2022/10/28 12:45:46;;;;;;;14.43;5.53;;;22.70;99.90;;;;;;5076863;28;19923;-30
2022/10/28 12:48:32;;;;;;;12.48;5.60;;;22.60;99.90;;;;;;5062925;28;20036;-30
2022/10/28 12:51:21;;;;;;;13.70;5.45;;;22.60;99.90;;;;;;5063091;28;20028;-30
2022/10/28 12:54:28;;;;;;;15.02;5.70;;;22.50;99.90;;;;;;5075438;28;20512;-30
2022/10/28 12:57:17;;;;;;;13.27;6.95;;;22.50;99.90;;;;;;5039567;28;20529;-30
2022/10/28 12:59:48;;;;;;;13.65;5.47;;;22.30;99.90;;;;;;5075810;28;20033;-29